Time;durP1;ratioP1;P1;durP2;ratioP2;P2;SDS_P1;SDS_P2;PMS_P1;PMS_P2;Temp;Humidity;BMP_temperature;BMP_pressure;BME280_temperature;BME280_humidity;BME280_pressure;Samples;Min_cycle;Max_cycle;Signal;HPM_P1;HPM_P2
2022/06/02 00:01:19;;;;;;;2.22;0.70;;;12.50;99.90;;;;;;5051174;28;20201;-76
2022/06/02 00:03:59;;;;;;;0.98;0.70;;;12.40;99.90;;;;;;5051733;28;20237;-77
2022/06/02 00:06:45;;;;;;;1.27;0.60;;;12.40;99.90;;;;;;5049305;28;20241;-76
2022/06/02 00:09:26;;;;;;;0.73;0.55;;;12.40;99.90;;;;;;5051700;28;20197;-77
2022/06/02 00:12:03;;;;;;;1.13;0.57;;;12.40;99.90;;;;;;5051009;28;20700;-77
2022/06/02 00:14:54;;;;;;;3.00;0.90;;;12.30;99.90;;;;;;5051450;28;20205;-77
2022/06/02 00:17:35;;;;;;;1.75;0.82;;;12.50;99.90;;;;;;5049110;28;20585;-77
2022/06/02 00:20:08;;;;;;;3.05;0.70;;;12.50;99.90;;;;;;5048264;28;20197;-79
2022/06/02 00:22:50;;;;;;;0.85;0.60;;;12.60;99.90;;;;;;5053377;28;20612;-76
2022/06/02 00:25:28;;;;;;;1.83;0.75;;;12.70;99.90;;;;;;5051373;28;20194;-76
2022/06/02 00:28:06;;;;;;;2.63;0.93;;;12.70;99.90;;;;;;5048385;28;20274;-75
2022/06/02 00:30:45;;;;;;;1.02;0.65;;;12.70;99.90;;;;;;5048892;28;20194;-76
2022/06/02 00:33:28;;;;;;;4.13;0.70;;;12.80;99.90;;;;;;5044418;28;20259;-76
2022/06/02 00:36:03;;;;;;;2.25;0.70;;;12.70;99.90;;;;;;5050151;28;20206;-75
2022/06/02 00:38:38;;;;;;;3.00;0.70;;;12.70;99.90;;;;;;5049269;28;20252;-75
2022/06/02 00:41:20;;;;;;;1.38;0.60;;;12.70;99.90;;;;;;5045648;28;20721;-74
2022/06/02 00:44:08;;;;;;;1.83;0.57;;;12.70;99.90;;;;;;5047777;28;20318;-74
2022/06/02 00:46:59;;;;;;;1.75;0.60;;;12.70;99.90;;;;;;5046918;28;20271;-76
2022/06/02 00:49:43;;;;;;;2.28;0.60;;;12.80;99.90;;;;;;5050526;28;20202;-74
2022/06/02 00:52:31;;;;;;;1.08;0.50;;;12.80;99.90;;;;;;5047492;28;20248;-75
2022/06/02 00:58:22;;;;;;;1.38;0.80;;;12.90;99.90;;;;;;5047820;28;20205;-78
2022/06/02 01:00:56;;;;;;;1.75;0.52;;;12.90;99.90;;;;;;5041234;28;20233;-77
2022/06/02 01:03:30;;;;;;;75.53;40.72;;;12.90;99.90;;;;;;5052655;28;21748;-77
2022/06/02 01:06:34;;;;;;;29.67;17.80;;;13.10;99.90;;;;;;5045034;28;20225;-83
2022/06/02 01:09:27;;;;;;;33.67;18.45;;;13.00;99.90;;;;;;5036709;28;20209;-84
2022/06/02 01:12:10;;;;;;;9.68;4.25;;;13.20;99.90;;;;;;5049305;28;20198;-78
2022/06/02 01:14:57;;;;;;;5.78;3.67;;;13.20;99.90;;;;;;5053453;28;20220;-81
2022/06/02 01:17:38;;;;;;;2.83;1.45;;;13.30;99.90;;;;;;5051071;28;20193;-78
2022/06/02 01:20:31;;;;;;;3.05;1.17;;;13.50;99.90;;;;;;5052291;28;20201;-76
2022/06/02 01:23:28;;;;;;;1.35;0.90;;;13.60;99.90;;;;;;5051630;28;20534;-75
2022/06/02 01:26:26;;;;;;;2.55;1.00;;;13.80;99.90;;;;;;5046345;28;20324;-74
2022/06/02 01:29:08;;;;;;;1.17;0.82;;;13.80;99.90;;;;;;5049925;28;20224;-78
2022/06/02 01:31:48;;;;;;;1.10;1.00;;;13.90;99.90;;;;;;5047872;28;20659;-75
2022/06/02 01:34:31;;;;;;;2.20;0.77;;;13.90;99.90;;;;;;5048171;28;20292;-76
2022/06/02 01:37:09;;;;;;;0.70;0.70;;;14.00;99.90;;;;;;5053581;28;20201;-76
2022/06/02 01:39:56;;;;;;;1.88;1.40;;;14.10;99.90;;;;;;5052334;28;20193;-76
2022/06/02 01:42:36;;;;;;;1.42;0.52;;;14.30;99.90;;;;;;5050463;28;20256;-74
2022/06/02 01:45:17;;;;;;;0.82;0.50;;;14.30;99.90;;;;;;5050453;28;20200;-75
2022/06/02 01:47:55;;;;;;;1.38;0.60;;;14.40;99.90;;;;;;5050278;28;20220;-74
2022/06/02 01:50:33;;;;;;;1.20;0.60;;;14.40;99.90;;;;;;5048072;28;20205;-76
2022/06/02 01:53:15;;;;;;;1.05;0.70;;;14.40;99.90;;;;;;5049900;28;20205;-76
2022/06/02 01:56:17;;;;;;;2.60;0.90;;;14.40;99.90;;;;;;5050887;28;20291;-74
2022/06/02 01:59:15;;;;;;;1.15;0.70;;;14.30;99.90;;;;;;5050262;28;20239;-75
2022/06/02 02:01:55;;;;;;;2.03;0.70;;;14.40;99.90;;;;;;5048419;28;20641;-75
2022/06/02 02:04:38;;;;;;;1.85;0.65;;;14.60;99.90;;;;;;5047841;28;20302;-75
2022/06/02 02:07:18;;;;;;;0.88;0.80;;;14.70;99.90;;;;;;5045521;28;20279;-76
2022/06/02 02:09:58;;;;;;;0.70;0.60;;;14.80;99.90;;;;;;5048172;28;20280;-76
2022/06/02 02:12:45;;;;;;;3.03;1.15;;;14.80;99.90;;;;;;5049250;28;20281;-75
2022/06/02 02:15:31;;;;;;;2.60;0.70;;;14.90;99.90;;;;;;5047236;28;20193;-75
2022/06/02 02:18:30;;;;;;;1.10;0.70;;;15.00;99.90;;;;;;5048121;28;20598;-75
2022/06/02 02:21:22;;;;;;;1.35;0.77;;;15.10;99.90;;;;;;5033084;28;20201;-75
2022/06/02 02:24:04;;;;;;;5.90;0.93;;;15.20;99.90;;;;;;5046391;28;20718;-74
2022/06/02 02:26:42;;;;;;;1.13;0.70;;;15.20;99.90;;;;;;5048253;28;20568;-74
2022/06/02 02:29:25;;;;;;;3.83;0.90;;;15.30;99.90;;;;;;5045593;28;20204;-74
2022/06/02 02:32:07;;;;;;;2.22;0.80;;;15.30;99.90;;;;;;5049528;28;20196;-75
2022/06/02 02:34:52;;;;;;;2.63;0.68;;;15.20;99.90;;;;;;5049261;28;20285;-75
2022/06/02 02:37:31;;;;;;;1.40;0.80;;;15.40;99.90;;;;;;5045089;28;20201;-76
2022/06/02 02:40:15;;;;;;;2.17;0.90;;;15.60;99.90;;;;;;5049800;28;20201;-76
2022/06/02 02:42:53;;;;;;;1.90;0.80;;;15.70;99.90;;;;;;5050067;28;20204;-75
2022/06/02 02:45:44;;;;;;;3.67;1.48;;;15.70;99.90;;;;;;5046582;28;20285;-75
2022/06/02 02:48:21;;;;;;;1.88;0.93;;;15.70;99.90;;;;;;5044812;28;20213;-75
2022/06/02 02:51:05;;;;;;;1.52;0.90;;;15.70;99.90;;;;;;5047087;28;20661;-76
2022/06/02 02:53:42;;;;;;;1.38;0.80;;;15.60;99.90;;;;;;5042393;28;20632;-75
2022/06/02 02:56:21;;;;;;;3.30;0.90;;;15.60;99.90;;;;;;5043925;28;20185;-77
2022/06/02 02:58:58;;;;;;;3.17;0.80;;;15.70;99.90;;;;;;5046310;28;20632;-76
2022/06/02 03:01:43;;;;;;;1.77;0.90;;;15.90;99.90;;;;;;5046570;28;20201;-76
2022/06/02 03:04:31;;;;;;;3.17;0.95;;;15.90;99.90;;;;;;5045142;28;20225;-76
2022/06/02 03:07:01;;;;;;;2.22;0.90;;;15.90;99.90;;;;;;5045223;28;20244;-74
2022/06/02 03:09:43;;;;;;;2.15;0.88;;;15.90;99.90;;;;;;5048644;28;20194;-76
2022/06/02 03:12:27;;;;;;;1.48;0.85;;;15.90;99.90;;;;;;5047486;28;20190;-75
2022/06/02 03:15:18;;;;;;;1.85;1.00;;;15.90;99.90;;;;;;5046013;28;20193;-76
2022/06/02 03:18:09;;;;;;;2.80;1.02;;;16.00;99.90;;;;;;5048713;28;20252;-74
2022/06/02 03:20:53;;;;;;;10.25;2.45;;;16.00;99.90;;;;;;5035862;28;20285;-75
2022/06/02 03:23:51;;;;;;;6.60;1.83;;;16.00;99.90;;;;;;5047331;28;20190;-78
2022/06/02 03:26:33;;;;;;;4.55;0.98;;;16.00;99.90;;;;;;5049004;28;20197;-76
2022/06/02 03:29:15;;;;;;;4.78;1.42;;;15.90;99.90;;;;;;5050482;28;20209;-75
2022/06/02 03:31:51;;;;;;;2.28;1.15;;;15.90;99.90;;;;;;5045461;28;20695;-75
2022/06/02 03:34:33;;;;;;;3.40;1.05;;;15.80;99.90;;;;;;5051784;28;20269;-75
2022/06/02 03:37:27;;;;;;;4.03;0.90;;;15.80;99.90;;;;;;5054873;28;20198;-76
2022/06/02 03:40:14;;;;;;;4.18;1.63;;;15.70;99.90;;;;;;5050819;28;20202;-76
2022/06/02 03:42:55;;;;;;;1.77;0.80;;;15.80;99.90;;;;;;5052228;28;20194;-75
2022/06/02 03:45:54;;;;;;;3.20;0.70;;;15.80;99.90;;;;;;5055455;28;20641;-75
2022/06/02 03:48:50;;;;;;;2.42;0.70;;;15.80;99.90;;;;;;5049902;28;20232;-75
2022/06/02 03:51:30;;;;;;;0.95;0.80;;;15.90;99.90;;;;;;5049432;28;20755;-75
2022/06/02 03:54:26;;;;;;;3.55;1.00;;;15.80;99.90;;;;;;5054017;28;20205;-76
2022/06/02 03:57:12;;;;;;;2.33;1.15;;;15.80;99.90;;;;;;5052331;28;20276;-75
2022/06/02 04:00:03;;;;;;;1.45;0.70;;;15.80;99.90;;;;;;5052651;28;20201;-82
2022/06/02 04:02:42;;;;;;;2.25;0.77;;;15.80;99.90;;;;;;5050881;28;20239;-80
2022/06/02 04:05:22;;;;;;;2.78;1.27;;;15.80;99.90;;;;;;5047101;28;20221;-77
2022/06/02 04:08:12;;;;;;;1.80;0.80;;;15.80;99.90;;;;;;5053555;28;20695;-75
2022/06/02 04:10:51;;;;;;;2.00;0.80;;;15.90;99.90;;;;;;5052818;28;20193;-76
2022/06/02 04:13:39;;;;;;;3.45;0.80;;;16.00;99.90;;;;;;5052191;28;20237;-77
2022/06/02 04:16:41;;;;;;;1.38;0.60;;;16.00;99.90;;;;;;5053216;28;20683;-75
2022/06/02 04:22:26;;;;;;;2.35;1.00;;;16.20;99.90;;;;;;5048905;28;20193;-75
2022/06/02 04:25:10;;;;;;;4.13;0.70;;;16.20;99.90;;;;;;5059142;28;20240;-80
2022/06/02 04:27:47;;;;;;;1.67;0.70;;;16.30;99.90;;;;;;5052077;28;20220;-75
2022/06/02 04:30:24;;;;;;;1.23;0.65;;;16.30;99.90;;;;;;5051042;28;20204;-75
2022/06/02 04:33:04;;;;;;;3.55;0.85;;;16.30;99.90;;;;;;5054965;28;20185;-76
2022/06/02 04:35:47;;;;;;;3.40;0.77;;;16.30;99.90;;;;;;5060814;28;20192;-78
2022/06/02 04:38:27;;;;;;;2.67;0.80;;;16.30;99.90;;;;;;5052322;28;20647;-77
2022/06/02 04:41:05;;;;;;;2.45;0.85;;;16.30;99.90;;;;;;5054064;28;20205;-76
2022/06/02 04:43:48;;;;;;;2.15;0.73;;;16.30;99.90;;;;;;5054726;28;20201;-76
2022/06/02 04:46:35;;;;;;;2.13;0.90;;;16.30;99.90;;;;;;5054029;28;20660;-75
2022/06/02 04:49:13;;;;;;;2.05;0.65;;;16.30;99.90;;;;;;5054515;28;20301;-77
2022/06/02 04:51:54;;;;;;;3.50;0.88;;;16.30;99.90;;;;;;5054985;28;20197;-76
2022/06/02 04:54:36;;;;;;;2.30;0.80;;;16.20;99.90;;;;;;5055025;28;20189;-76
2022/06/02 04:57:16;;;;;;;1.88;0.60;;;16.20;99.90;;;;;;5054877;28;20193;-76
2022/06/02 04:59:55;;;;;;;1.38;0.60;;;16.20;99.90;;;;;;5055142;28;20283;-76
2022/06/02 05:02:35;;;;;;;1.85;0.65;;;16.20;99.90;;;;;;5044924;28;20189;-75
2022/06/02 05:05:15;;;;;;;2.25;0.70;;;16.20;99.90;;;;;;5058110;28;20593;-77
2022/06/02 05:08:17;;;;;;;2.75;0.88;;;16.20;99.90;;;;;;5052818;28;20221;-75
2022/06/02 05:10:55;;;;;;;3.15;0.70;;;16.20;99.90;;;;;;5051484;28;20196;-75
2022/06/02 05:13:37;;;;;;;3.03;0.95;;;16.10;99.90;;;;;;5052738;28;20205;-75
2022/06/02 05:16:23;;;;;;;2.65;0.77;;;16.20;99.90;;;;;;5054214;28;20193;-75
2022/06/02 05:19:28;;;;;;;3.45;0.80;;;16.10;99.90;;;;;;5052997;28;20644;-75
2022/06/02 05:22:30;;;;;;;1.50;0.70;;;16.00;99.90;;;;;;5049959;28;20718;-76
2022/06/02 05:25:43;;;;;;;1.40;0.80;;;16.00;99.90;;;;;;5051075;28;20209;-78
2022/06/02 05:28:46;;;;;;;1.33;0.82;;;16.10;99.90;;;;;;5022310;28;20233;-75
2022/06/02 05:31:36;;;;;;;2.65;0.90;;;16.00;99.90;;;;;;5053675;28;20235;-75
2022/06/02 05:34:52;;;;;;;2.00;0.70;;;16.00;99.90;;;;;;5053929;28;20220;-75
2022/06/02 05:37:38;;;;;;;1.08;0.70;;;16.00;99.90;;;;;;5019321;28;20198;-76
2022/06/02 05:40:25;;;;;;;3.28;0.82;;;16.00;99.90;;;;;;5053628;28;20224;-76
2022/06/02 05:43:12;;;;;;;2.95;0.90;;;16.00;99.90;;;;;;5054142;28;20201;-77
2022/06/02 05:45:58;;;;;;;5.35;1.00;;;16.10;99.90;;;;;;5047405;28;20552;-76
2022/06/02 05:48:42;;;;;;;0.98;0.80;;;16.10;99.90;;;;;;5053505;28;20756;-77
2022/06/02 05:51:22;;;;;;;5.20;0.98;;;16.00;99.90;;;;;;5053596;28;20193;-79
2022/06/02 05:54:06;;;;;;;1.60;0.80;;;16.00;99.90;;;;;;5053926;28;20189;-79
2022/06/02 05:56:45;;;;;;;3.53;1.00;;;16.00;99.90;;;;;;5045681;28;20239;-77
2022/06/02 05:59:38;;;;;;;3.30;0.73;;;16.00;99.90;;;;;;5053282;28;20205;-79
2022/06/02 06:03:01;;;;;;;3.05;0.80;;;15.90;99.90;;;;;;5052574;28;20202;-76
2022/06/02 06:05:34;;;;;;;2.45;1.00;;;15.80;99.90;;;;;;5049682;28;20225;-77
2022/06/02 06:08:23;;;;;;;3.53;0.85;;;15.60;99.90;;;;;;5053487;28;20209;-77
2022/06/02 06:11:21;;;;;;;2.58;1.10;;;15.40;99.90;;;;;;5053177;28;20197;-77
2022/06/02 06:14:03;;;;;;;2.22;0.88;;;15.30;99.90;;;;;;5055946;28;20661;-76
2022/06/02 06:16:39;;;;;;;5.28;1.10;;;15.10;99.90;;;;;;5049860;28;20292;-77
2022/06/02 06:19:49;;;;;;;4.03;1.20;;;15.00;99.90;;;;;;5052561;28;20288;-76
2022/06/02 06:22:41;;;;;;;2.92;1.20;;;14.80;99.90;;;;;;5052114;28;20201;-76
2022/06/02 06:25:26;;;;;;;4.90;1.30;;;14.60;99.90;;;;;;5051919;28;20193;-76
2022/06/02 06:28:09;;;;;;;1.95;0.85;;;14.60;99.90;;;;;;5046361;28;20613;-76
2022/06/02 06:30:58;;;;;;;1.88;0.80;;;14.40;99.90;;;;;;5051975;28;20205;-76
2022/06/02 06:33:52;;;;;;;4.18;1.75;;;14.20;99.90;;;;;;5059716;28;20595;-77
2022/06/02 06:36:45;;;;;;;4.57;2.60;;;14.00;99.90;;;;;;5052198;28;20281;-78
2022/06/02 06:39:26;;;;;;;140.68;73.28;;;13.90;99.90;;;;;;5050633;28;20204;-77
2022/06/02 06:42:13;;;;;;;29.75;16.48;;;13.90;99.90;;;;;;5048630;28;20189;-77
2022/06/02 06:44:52;;;;;;;16.52;9.35;;;13.90;99.90;;;;;;5051243;28;20590;-79
2022/06/02 06:47:29;;;;;;;4.93;2.15;;;13.80;99.90;;;;;;5044517;28;20597;-77
2022/06/02 06:50:13;;;;;;;3.88;2.33;;;13.80;99.90;;;;;;5047995;28;20221;-76
2022/06/02 06:53:03;;;;;;;2.97;1.65;;;13.70;99.90;;;;;;5052090;28;20251;-77
2022/06/02 06:55:47;;;;;;;4.47;1.77;;;13.70;99.90;;;;;;5050731;28;20221;-76
2022/06/02 06:58:29;;;;;;;3.25;1.60;;;13.70;99.90;;;;;;5052344;28;20530;-76
2022/06/02 07:01:09;;;;;;;5.03;1.90;;;13.60;99.90;;;;;;5047658;28;20194;-76
2022/06/02 07:03:51;;;;;;;4.45;1.63;;;13.50;99.90;;;;;;5050169;28;20233;-76
2022/06/02 07:06:31;;;;;;;3.60;1.80;;;13.50;99.90;;;;;;5048234;28;20222;-76
2022/06/02 07:09:09;;;;;;;4.95;1.52;;;13.40;99.90;;;;;;5054260;28;20244;-76
2022/06/02 07:14:43;;;;;;;3.38;1.52;;;13.20;99.90;;;;;;5056028;28;20196;-76
2022/06/02 07:17:24;;;;;;;4.90;1.60;;;13.10;99.90;;;;;;5051324;28;20204;-77
2022/06/02 07:20:04;;;;;;;4.40;1.65;;;13.10;99.90;;;;;;5053857;28;20753;-78
2022/06/02 07:22:42;;;;;;;9.65;1.83;;;13.10;99.90;;;;;;5052269;28;20193;-76
2022/06/02 07:25:19;;;;;;;5.20;1.80;;;13.00;99.90;;;;;;5050466;28;20194;-77
2022/06/02 07:27:55;;;;;;;2.00;1.50;;;13.00;99.90;;;;;;5054959;28;20200;-76
2022/06/02 07:30:51;;;;;;;5.47;2.20;;;13.00;99.90;;;;;;5056604;28;20189;-77
2022/06/02 07:33:44;;;;;;;5.47;2.05;;;12.90;99.90;;;;;;5056141;28;20632;-77
2022/06/02 07:36:40;;;;;;;3.22;1.90;;;12.90;99.90;;;;;;5053690;28;20205;-76
2022/06/02 07:39:33;;;;;;;3.10;1.90;;;12.80;99.90;;;;;;5055116;28;20198;-76
2022/06/02 07:42:24;;;;;;;5.30;2.38;;;12.70;99.90;;;;;;5055937;28;20656;-76
2022/06/02 07:45:16;;;;;;;3.17;1.95;;;12.80;99.90;;;;;;5055650;28;20556;-76
2022/06/02 07:48:07;;;;;;;2.72;2.03;;;12.70;99.90;;;;;;5053431;28;20205;-76
2022/06/02 07:50:48;;;;;;;4.85;3.33;;;12.70;99.90;;;;;;5052088;28;20251;-76
2022/06/02 07:53:23;;;;;;;10.32;5.00;;;12.70;99.90;;;;;;5056112;28;20198;-77
2022/06/02 07:56:01;;;;;;;13.45;6.38;;;12.70;99.90;;;;;;5055658;28;20215;-78
2022/06/02 07:58:46;;;;;;;12.50;6.07;;;12.60;99.90;;;;;;5055638;28;20644;-77
2022/06/02 08:01:35;;;;;;;12.73;6.43;;;12.60;99.90;;;;;;5036509;28;20642;-76
2022/06/02 08:04:15;;;;;;;8.73;5.82;;;12.50;99.90;;;;;;5053279;28;20225;-76
2022/06/02 08:06:53;;;;;;;8.48;5.15;;;12.50;99.90;;;;;;5053041;28;20271;-77
2022/06/02 08:09:45;;;;;;;7.43;4.35;;;12.40;99.90;;;;;;5048142;28;20679;-77
2022/06/02 08:12:23;;;;;;;7.60;4.25;;;12.50;99.90;;;;;;5055426;28;20266;-77
2022/06/02 08:15:06;;;;;;;8.73;4.25;;;12.40;99.90;;;;;;5055792;28;20202;-77
2022/06/02 08:17:41;;;;;;;8.13;3.70;;;12.40;99.90;;;;;;5056009;28;20633;-77
2022/06/02 08:20:31;;;;;;;7.00;3.70;;;12.40;99.90;;;;;;5055650;28;20200;-77
2022/06/02 08:23:15;;;;;;;6.45;3.83;;;12.40;99.90;;;;;;5056186;28;20190;-77
2022/06/02 08:25:58;;;;;;;13.23;8.50;;;12.40;99.90;;;;;;5055758;28;20594;-77
2022/06/02 08:28:55;;;;;;;52.22;34.45;;;12.40;99.90;;;;;;5046488;28;20715;-77
2022/06/02 08:31:43;;;;;;;14.80;9.35;;;12.40;99.90;;;;;;5050429;28;20247;-76
2022/06/02 08:34:17;;;;;;;12.95;7.35;;;12.30;99.90;;;;;;5054693;28;20190;-76
2022/06/02 08:36:55;;;;;;;48.38;23.23;;;12.40;99.90;;;;;;5055758;28;20189;-76
2022/06/02 08:40:00;;;;;;;21.15;10.70;;;12.30;99.90;;;;;;5053471;28;20911;-76
2022/06/02 08:43:01;;;;;;;9.98;5.15;;;12.40;99.90;;;;;;5051112;28;20656;-76
2022/06/02 08:45:58;;;;;;;8.27;4.05;;;12.30;99.90;;;;;;5020291;28;20196;-78
2022/06/02 08:49:09;;;;;;;5.97;3.38;;;12.20;99.90;;;;;;5024170;28;20201;-77
2022/06/02 08:52:23;;;;;;;9.25;4.00;;;12.10;99.90;;;;;;5031862;28;20212;-76
2022/06/02 08:55:45;;;;;;;9.20;4.55;;;12.00;99.90;;;;;;5012487;28;20205;-76
2022/06/02 08:58:41;;;;;;;6.38;3.72;;;11.90;99.90;;;;;;5052283;28;20193;-77
2022/06/02 09:01:22;;;;;;;6.60;3.60;;;11.80;99.90;;;;;;5047335;28;20277;-76
2022/06/02 09:04:39;;;;;;;7.90;3.80;;;11.80;99.90;;;;;;5054715;28;20225;-76
2022/06/02 09:07:38;;;;;;;7.95;3.55;;;11.80;99.90;;;;;;5010320;28;20587;-77
2022/06/02 09:10:39;;;;;;;12.85;3.88;;;11.80;99.90;;;;;;5053727;28;20213;-76
2022/06/02 09:13:40;;;;;;;8.35;4.18;;;11.80;99.90;;;;;;5054208;28;20680;-76
2022/06/02 09:16:35;;;;;;;7.57;3.72;;;11.70;99.90;;;;;;5048454;28;20212;-76
2022/06/02 09:19:30;;;;;;;11.30;4.15;;;11.60;99.90;;;;;;5054562;28;20193;-82
2022/06/02 09:22:30;;;;;;;8.45;3.97;;;11.60;99.90;;;;;;5048767;28;20186;-76
2022/06/02 09:25:15;;;;;;;9.10;3.97;;;11.60;99.90;;;;;;5044304;28;20288;-76
2022/06/02 09:28:07;;;;;;;6.63;4.03;;;11.60;99.90;;;;;;5048053;28;20281;-76
2022/06/02 09:30:55;;;;;;;8.63;4.50;;;11.60;99.90;;;;;;5052016;28;20221;-76
2022/06/02 09:33:54;;;;;;;8.43;3.72;;;11.50;99.90;;;;;;5054102;28;20204;-77
2022/06/02 09:37:13;;;;;;;8.40;4.15;;;11.50;99.90;;;;;;5049482;28;20252;-76
2022/06/02 09:40:19;;;;;;;8.55;3.83;;;11.50;99.90;;;;;;5027097;28;20247;-77
2022/06/02 09:43:24;;;;;;;7.80;3.92;;;11.50;99.90;;;;;;5051207;28;20197;-75
2022/06/02 09:46:09;;;;;;;7.18;3.38;;;11.50;99.90;;;;;;5052985;28;20185;-78
2022/06/02 09:49:00;;;;;;;7.85;3.80;;;11.50;99.90;;;;;;5051364;28;20194;-77
2022/06/02 09:52:01;;;;;;;8.13;3.70;;;11.50;99.90;;;;;;5052956;28;20247;-76
2022/06/02 09:54:53;;;;;;;6.30;3.60;;;11.50;99.90;;;;;;5017351;28;20194;-78
2022/06/02 09:58:02;;;;;;;8.90;3.83;;;11.50;99.90;;;;;;5051239;28;20196;-77
2022/06/02 10:01:12;;;;;;;8.88;4.03;;;11.50;99.90;;;;;;5051341;28;20197;-76
2022/06/02 10:04:20;;;;;;;10.85;4.22;;;11.40;99.90;;;;;;5050622;28;20768;-77
2022/06/02 10:07:21;;;;;;;9.25;4.55;;;11.40;99.90;;;;;;5048687;28;20691;-76
2022/06/02 10:10:22;;;;;;;7.47;4.30;;;11.40;99.90;;;;;;5053291;28;20217;-77
2022/06/02 10:13:20;;;;;;;8.40;4.38;;;11.40;99.90;;;;;;5052902;28;20667;-76
2022/06/02 10:16:08;;;;;;;9.13;4.47;;;11.40;99.90;;;;;;5023056;28;20216;-76
2022/06/02 10:19:16;;;;;;;12.63;4.63;;;11.40;99.90;;;;;;5049077;28;20197;-76
2022/06/02 10:22:01;;;;;;;12.80;4.57;;;11.40;99.90;;;;;;5043080;28;20204;-76
2022/06/02 10:25:04;;;;;;;12.95;4.88;;;11.40;99.90;;;;;;5051770;28;20190;-76
2022/06/02 10:28:05;;;;;;;10.38;4.80;;;11.40;99.90;;;;;;5050192;28;20679;-77
2022/06/02 10:31:24;;;;;;;11.77;5.35;;;11.40;99.90;;;;;;5051575;28;20225;-76
2022/06/02 10:34:32;;;;;;;11.85;5.47;;;11.40;99.90;;;;;;5050506;28;20202;-77
2022/06/02 10:37:17;;;;;;;10.30;5.35;;;11.30;99.90;;;;;;5048752;28;20239;-76
2022/06/02 10:40:13;;;;;;;10.63;6.20;;;11.30;99.90;;;;;;5046255;28;20190;-76
2022/06/02 10:43:13;;;;;;;12.68;6.00;;;11.30;99.90;;;;;;5053844;28;20198;-76
2022/06/02 10:46:08;;;;;;;12.32;5.30;;;11.30;99.90;;;;;;5049617;28;20201;-77
2022/06/02 10:49:15;;;;;;;12.98;5.68;;;11.30;99.90;;;;;;5044087;28;20204;-76
2022/06/02 10:52:31;;;;;;;11.55;6.07;;;11.30;99.90;;;;;;5047507;28;20216;-76
2022/06/02 10:55:39;;;;;;;11.15;5.70;;;11.20;99.90;;;;;;5046434;28;20316;-77
2022/06/02 10:58:54;;;;;;;12.20;6.15;;;11.10;99.90;;;;;;5045392;28;20247;-76
2022/06/02 11:02:05;;;;;;;9.32;5.75;;;11.20;99.90;;;;;;5028030;28;20216;-77
2022/06/02 11:05:19;;;;;;;11.40;5.75;;;11.20;99.90;;;;;;5007084;28;20274;-76
2022/06/02 11:08:27;;;;;;;9.70;4.93;;;11.10;99.90;;;;;;5043500;28;20195;-76
2022/06/02 11:11:32;;;;;;;10.05;5.97;;;11.10;99.90;;;;;;5044209;28;20221;-76
2022/06/02 11:14:40;;;;;;;12.48;5.68;;;11.10;99.90;;;;;;5019391;28;20220;-78
2022/06/02 11:17:37;;;;;;;12.52;5.75;;;11.00;99.90;;;;;;5023255;28;20628;-76
2022/06/02 11:20:57;;;;;;;11.18;5.60;;;11.00;99.90;;;;;;5047731;28;20269;-76
2022/06/02 11:23:59;;;;;;;10.73;5.60;;;11.00;99.90;;;;;;5012455;28;20202;-76
2022/06/02 11:27:09;;;;;;;9.32;5.43;;;11.00;99.90;;;;;;5043753;28;20189;-76
2022/06/02 11:30:15;;;;;;;12.27;5.88;;;10.90;99.90;;;;;;5048770;28;20312;-76
2022/06/02 11:33:25;;;;;;;12.68;6.25;;;11.00;99.90;;;;;;5045700;28;20759;-76
2022/06/02 11:36:25;;;;;;;12.40;6.18;;;10.90;99.90;;;;;;5040201;28;20197;-76
2022/06/02 11:39:21;;;;;;;13.55;7.15;;;10.90;99.90;;;;;;5045655;28;20205;-76
2022/06/02 11:42:01;;;;;;;13.23;7.25;;;10.90;99.90;;;;;;5042972;28;20209;-77
2022/06/02 11:44:43;;;;;;;13.57;7.07;;;10.90;99.90;;;;;;5050917;28;20216;-76
2022/06/02 11:47:43;;;;;;;12.18;6.65;;;10.90;99.90;;;;;;5048939;28;20558;-77
2022/06/02 11:51:09;;;;;;;13.57;6.70;;;10.90;99.90;;;;;;5050540;28;20314;-76
2022/06/02 11:53:57;;;;;;;14.52;6.97;;;10.90;99.90;;;;;;5050392;28;20222;-76
2022/06/02 11:56:43;;;;;;;15.45;7.00;;;10.80;99.90;;;;;;5053252;28;20198;-76
2022/06/02 11:59:46;;;;;;;12.05;6.55;;;10.80;99.90;;;;;;5053545;28;20600;-76
2022/06/02 12:02:47;;;;;;;13.52;6.50;;;10.70;99.90;;;;;;5051872;28;20202;-76
2022/06/02 12:06:00;;;;;;;12.52;6.72;;;10.70;99.90;;;;;;5051299;28;20593;-76
2022/06/02 12:08:58;;;;;;;13.27;6.75;;;10.70;99.90;;;;;;5052446;28;20186;-76
2022/06/02 12:11:52;;;;;;;9.70;5.95;;;10.60;99.90;;;;;;5051710;28;20285;-76
2022/06/02 12:14:59;;;;;;;12.85;6.80;;;10.60;99.90;;;;;;5053733;28;20236;-75
2022/06/02 12:17:49;;;;;;;13.68;6.65;;;10.50;99.90;;;;;;5051980;28;20197;-76
2022/06/02 12:20:59;;;;;;;11.30;6.65;;;10.40;99.90;;;;;;5053298;28;20228;-75
2022/06/02 12:23:44;;;;;;;10.27;5.80;;;10.40;99.90;;;;;;5051312;28;20198;-76
2022/06/02 12:26:30;;;;;;;10.80;6.70;;;10.40;99.90;;;;;;5050924;28;20190;-76
2022/06/02 12:29:27;;;;;;;9.52;6.22;;;10.40;99.90;;;;;;5051800;28;20247;-76
2022/06/02 12:32:20;;;;;;;13.43;5.95;;;10.40;99.90;;;;;;5051280;28;20189;-76
2022/06/02 12:35:10;;;;;;;11.15;6.18;;;10.40;99.90;;;;;;5052492;28;20656;-76
2022/06/02 12:38:22;;;;;;;15.70;6.25;;;10.30;99.90;;;;;;5052778;28;20534;-75
2022/06/02 12:41:27;;;;;;;12.90;6.43;;;10.30;99.90;;;;;;5043728;28;20607;-75
2022/06/02 12:44:27;;;;;;;11.23;6.30;;;10.30;99.90;;;;;;5019529;28;20197;-76
2022/06/02 12:47:23;;;;;;;12.80;6.50;;;10.30;99.90;;;;;;5049420;28;20201;-76
2022/06/02 12:50:18;;;;;;;10.65;5.93;;;10.40;99.90;;;;;;5048613;28;20697;-76
2022/06/02 12:53:30;;;;;;;12.65;6.40;;;10.40;99.90;;;;;;5053070;28;20552;-76
2022/06/02 12:56:17;;;;;;;11.32;5.35;;;10.40;99.90;;;;;;5051201;28;20280;-75
2022/06/02 12:59:36;;;;;;;9.27;5.32;;;10.50;99.90;;;;;;5049328;28;20562;-76
2022/06/02 13:02:16;;;;;;;9.82;4.93;;;10.50;99.90;;;;;;5007183;28;21504;-76
2022/06/02 13:05:34;;;;;;;11.13;4.85;;;10.50;99.90;;;;;;5042771;28;20244;-76
2022/06/02 13:08:54;;;;;;;9.55;4.80;;;10.60;99.90;;;;;;5006757;28;20704;-79
2022/06/02 13:11:46;;;;;;;8.70;4.68;;;10.60;99.90;;;;;;4952071;29;20755;-75
2022/06/02 13:14:48;;;;;;;9.48;5.13;;;10.60;99.90;;;;;;4990239;28;20196;-76
2022/06/02 13:17:51;;;;;;;8.48;4.90;;;10.60;99.90;;;;;;5025160;28;20201;-75
2022/06/02 13:20:40;;;;;;;11.02;5.68;;;10.60;99.90;;;;;;5047810;28;20208;-75
2022/06/02 13:23:51;;;;;;;11.10;5.10;;;10.60;99.90;;;;;;5052915;28;20197;-76
2022/06/02 13:26:50;;;;;;;10.05;5.03;;;10.60;99.90;;;;;;5044918;28;20271;-75
2022/06/02 13:29:49;;;;;;;8.25;4.90;;;10.60;99.90;;;;;;5049238;28;20197;-75
2022/06/02 13:32:49;;;;;;;10.57;5.45;;;10.60;99.90;;;;;;5042818;28;20246;-76
2022/06/02 13:35:45;;;;;;;11.20;5.20;;;10.50;99.90;;;;;;5049963;28;20185;-75
2022/06/02 13:38:56;;;;;;;10.25;5.25;;;10.50;99.90;;;;;;5041200;28;20189;-76
2022/06/02 13:41:55;;;;;;;10.95;4.60;;;10.60;99.90;;;;;;5050268;28;20193;-76
2022/06/02 13:44:50;;;;;;;9.18;4.63;;;10.60;99.90;;;;;;5010388;28;20204;-75
2022/06/02 13:47:54;;;;;;;7.85;5.13;;;10.60;99.90;;;;;;5047982;28;20263;-76
2022/06/02 13:50:53;;;;;;;7.63;4.47;;;10.60;99.90;;;;;;5035462;28;20229;-75
2022/06/02 14:00:04;;;;;;;9.23;4.63;;;10.60;99.90;;;;;;5053085;28;20197;-75
2022/06/02 14:03:00;;;;;;;8.27;4.45;;;10.60;99.90;;;;;;5055341;28;20247;-75
2022/06/02 14:06:10;;;;;;;7.68;4.40;;;10.60;99.90;;;;;;5048487;28;20225;-75
2022/06/02 14:09:09;;;;;;;7.20;4.13;;;10.60;99.90;;;;;;5052191;28;20201;-76
2022/06/02 14:11:58;;;;;;;9.25;4.38;;;10.60;99.90;;;;;;5050352;28;20213;-76
2022/06/02 14:15:04;;;;;;;9.68;4.45;;;10.60;99.90;;;;;;5045446;28;20206;-76
2022/06/02 14:18:00;;;;;;;7.43;4.38;;;10.60;99.90;;;;;;5052692;28;20197;-76
2022/06/02 14:20:38;;;;;;;6.60;4.40;;;10.60;99.90;;;;;;5050971;28;20664;-75
2022/06/02 14:23:25;;;;;;;6.97;4.30;;;10.60;99.90;;;;;;5055442;28;20255;-75
2022/06/02 14:26:04;;;;;;;6.38;4.47;;;10.50;99.90;;;;;;5052484;28;20259;-75
2022/06/02 14:29:07;;;;;;;8.82;4.95;;;10.50;99.90;;;;;;5051916;28;20198;-75
2022/06/02 14:31:49;;;;;;;8.25;4.53;;;10.50;99.90;;;;;;5044779;28;20221;-75
2022/06/02 14:34:36;;;;;;;7.18;4.55;;;10.40;99.90;;;;;;5051110;28;20284;-76
2022/06/02 14:37:14;;;;;;;7.60;4.43;;;10.40;99.90;;;;;;5051439;28;20193;-76
2022/06/02 14:39:58;;;;;;;6.95;4.32;;;10.40;99.90;;;;;;5047482;28;20637;-75
2022/06/02 14:43:07;;;;;;;8.82;4.53;;;10.30;99.90;;;;;;5051942;28;20194;-76
2022/06/02 14:46:03;;;;;;;8.43;4.40;;;10.20;99.90;;;;;;5045284;28;20276;-75
2022/06/02 14:48:52;;;;;;;10.07;4.57;;;10.10;99.90;;;;;;5043117;28;20208;-76
2022/06/02 14:51:26;;;;;;;7.93;4.90;;;10.10;99.90;;;;;;5047976;28;20218;-75
2022/06/02 14:54:30;;;;;;;10.57;4.53;;;10.00;99.90;;;;;;5050865;28;20240;-75
2022/06/02 14:57:17;;;;;;;7.35;4.35;;;10.00;99.90;;;;;;5030094;28;20197;-75
2022/06/02 15:00:04;;;;;;;10.38;4.85;;;9.90;99.90;;;;;;5050195;28;20906;-77